Time;durP1;ratioP1;P1;durP2;ratioP2;P2;SDS_P1;SDS_P2;PMS_P1;PMS_P2;Temp;Humidity;BMP_temperature;BMP_pressure;BME280_temperature;BME280_humidity;BME280_pressure;Samples;Min_cycle;Max_cycle;Signal;HPM_P1;HPM_P2
2023/04/29 00:00:51;;;;;;;235.60;220.93;;;11.60;64.50;;;;;;5012678;28;20177;-75
2023/04/29 00:03:17;;;;;;;339.03;319.03;;;11.50;64.60;;;;;;5012393;28;20199;-75
2023/04/29 00:05:43;;;;;;;222.53;207.57;;;11.50;64.90;;;;;;5012139;28;20216;-75
2023/04/29 00:08:09;;;;;;;224.77;210.57;;;11.50;64.40;;;;;;5012768;28;20411;-75
2023/04/29 00:10:35;;;;;;;269.23;252.53;;;11.50;63.40;;;;;;5012526;28;20183;-75
2023/04/29 00:13:00;;;;;;;223.63;209.53;;;11.40;64.60;;;;;;5012287;28;20200;-76
2023/04/29 00:15:26;;;;;;;210.33;196.33;;;11.40;64.70;;;;;;5012060;28;20430;-75
2023/04/29 00:17:52;;;;;;;239.50;223.70;;;11.40;63.90;;;;;;5011052;28;20187;-75
2023/04/29 00:20:18;;;;;;;202.60;188.97;;;11.30;64.70;;;;;;5011830;28;20522;-74
2023/04/29 00:22:43;;;;;;;352.07;331.73;;;11.30;63.60;;;;;;5012022;28;20196;-76
2023/04/29 00:25:09;;;;;;;210.53;196.67;;;11.30;64.40;;;;;;5012200;28;20218;-75
2023/04/29 00:27:35;;;;;;;210.70;196.60;;;11.30;63.30;;;;;;5011669;28;20176;-75
2023/04/29 00:30:00;;;;;;;216.70;201.87;;;11.20;63.20;;;;;;5012458;28;20176;-75
2023/04/29 00:32:27;;;;;;;338.93;319.03;;;11.20;64.30;;;;;;5010651;28;20183;-75
2023/04/29 00:34:52;;;;;;;262.63;246.40;;;11.20;65.00;;;;;;5012133;28;20548;-73
2023/04/29 00:37:18;;;;;;;211.77;197.60;;;11.20;64.50;;;;;;5011892;28;20417;-75
2023/04/29 00:39:43;;;;;;;252.87;237.17;;;11.20;64.70;;;;;;5012076;28;20184;-75
2023/04/29 00:42:09;;;;;;;296.33;279.13;;;11.10;64.40;;;;;;5012140;28;20180;-75
2023/04/29 00:44:35;;;;;;;183.73;170.77;;;11.10;64.70;;;;;;5012360;28;20213;-75
2023/04/29 00:47:01;;;;;;;206.67;192.57;;;11.10;64.80;;;;;;5011730;28;20514;-73
2023/04/29 00:49:29;;;;;;;222.53;208.03;;;11.00;65.30;;;;;;5012032;28;20180;-75
2023/04/29 00:51:56;;;;;;;276.17;259.50;;;11.00;65.60;;;;;;5011966;28;20266;-73
2023/04/29 00:54:23;;;;;;;307.80;289.30;;;11.00;65.10;;;;;;5011971;28;20457;-75
2023/04/29 00:56:49;;;;;;;304.00;286.20;;;11.00;65.80;;;;;;5014119;28;20491;-75
2023/04/29 00:59:16;;;;;;;231.40;216.60;;;11.00;65.50;;;;;;5015725;28;20429;-75
2023/04/29 01:01:41;;;;;;;236.63;221.90;;;10.90;64.90;;;;;;5015583;28;20473;-75
2023/04/29 01:04:07;;;;;;;241.40;226.20;;;10.90;65.00;;;;;;5015840;28;20470;-73
2023/04/29 01:06:48;;;;;;;189.83;176.60;;;10.90;65.60;;;;;;5015411;28;20187;-75
2023/04/29 01:09:23;;;;;;;222.60;208.43;;;10.90;64.90;;;;;;5015743;28;20180;-75
2023/04/29 01:12:14;;;;;;;275.33;258.43;;;10.90;65.80;;;;;;5015880;28;20460;-74
2023/04/29 01:14:47;;;;;;;195.23;181.63;;;10.80;65.30;;;;;;5016254;28;20569;-74
2023/04/29 01:17:18;;;;;;;214.30;200.13;;;10.80;65.30;;;;;;5014869;28;20955;-74
2023/04/29 01:19:49;;;;;;;278.80;262.13;;;10.80;65.30;;;;;;5014912;28;20441;-74
2023/04/29 01:22:16;;;;;;;218.43;203.80;;;10.80;65.70;;;;;;5015397;28;20435;-74
2023/04/29 01:24:42;;;;;;;197.90;184.53;;;10.80;66.30;;;;;;5013964;28;20466;-73
2023/04/29 01:27:28;;;;;;;267.70;251.13;;;10.80;65.70;;;;;;5015004;28;20445;-74
2023/04/29 01:30:27;;;;;;;207.27;193.40;;;10.80;65.30;;;;;;5015498;28;20646;-74
2023/04/29 01:32:57;;;;;;;226.03;210.97;;;10.80;65.50;;;;;;5015364;28;20442;-74
2023/04/29 01:35:34;;;;;;;231.03;215.80;;;10.70;65.50;;;;;;5014982;28;20412;-74
2023/04/29 01:38:28;;;;;;;205.83;191.50;;;10.70;65.20;;;;;;5013011;28;20426;-74
2023/04/29 01:41:14;;;;;;;258.60;242.30;;;10.70;65.00;;;;;;4999159;28;20438;-74
2023/04/29 01:43:41;;;;;;;148.33;136.47;;;10.70;64.90;;;;;;5014690;28;20509;-73
2023/04/29 01:46:17;;;;;;;189.03;175.97;;;10.70;65.30;;;;;;5012996;28;20427;-74
2023/04/29 01:48:43;;;;;;;211.13;197.47;;;10.70;65.80;;;;;;5014865;28;20410;-73
2023/04/29 01:51:10;;;;;;;307.37;289.07;;;10.70;65.60;;;;;;5014683;28;20794;-73
2023/04/29 01:53:35;;;;;;;167.47;155.10;;;10.70;65.60;;;;;;5014558;28;20457;-74
2023/04/29 01:56:01;;;;;;;244.50;229.17;;;10.60;65.00;;;;;;5014638;28;20428;-73
2023/04/29 01:58:27;;;;;;;179.87;167.10;;;10.70;65.60;;;;;;5015128;28;20176;-74
2023/04/29 02:00:54;;;;;;;227.90;212.57;;;10.60;65.50;;;;;;5014710;28;20184;-74
2023/04/29 02:03:19;;;;;;;192.43;179.33;;;10.60;66.00;;;;;;5014388;28;20485;-73
2023/04/29 02:05:45;;;;;;;237.37;222.60;;;10.50;64.50;;;;;;5014403;28;20561;-73
2023/04/29 02:08:11;;;;;;;283.73;266.37;;;10.60;65.60;;;;;;5013810;28;20175;-72
2023/04/29 02:10:37;;;;;;;168.20;155.33;;;10.60;66.50;;;;;;5014420;28;20183;-73
2023/04/29 02:13:02;;;;;;;232.43;217.97;;;10.60;65.60;;;;;;5013997;28;20800;-74
2023/04/29 02:15:28;;;;;;;241.30;225.80;;;10.60;67.20;;;;;;5014237;28;20299;-75
2023/04/29 02:17:54;;;;;;;206.13;192.50;;;10.60;66.20;;;;;;5014225;28;20665;-74
2023/04/29 02:20:20;;;;;;;238.63;224.07;;;10.60;66.50;;;;;;5014527;28;20974;-74
2023/04/29 02:22:46;;;;;;;186.23;172.93;;;10.60;66.80;;;;;;5014072;28;20208;-74
2023/04/29 02:25:11;;;;;;;177.47;164.63;;;10.60;66.10;;;;;;5014208;28;20454;-73
2023/04/29 02:27:37;;;;;;;184.30;171.37;;;10.60;65.90;;;;;;5014382;28;20178;-73
2023/04/29 02:30:03;;;;;;;273.33;256.47;;;10.60;65.70;;;;;;5014307;28;20184;-76
2023/04/29 02:32:29;;;;;;;347.83;327.73;;;10.60;65.90;;;;;;5014896;28;20607;-76
2023/04/29 02:34:55;;;;;;;267.20;250.73;;;10.60;66.00;;;;;;5013359;28;20473;-76
2023/04/29 02:37:21;;;;;;;260.70;244.47;;;10.50;65.90;;;;;;5014839;28;20836;-75
2023/04/29 02:39:46;;;;;;;262.03;246.03;;;10.60;66.80;;;;;;5013144;28;20180;-75
2023/04/29 02:42:12;;;;;;;298.40;280.80;;;10.60;65.60;;;;;;5013980;28;20411;-75
2023/04/29 02:44:38;;;;;;;283.67;265.97;;;10.50;66.10;;;;;;5014233;28;20219;-75
2023/04/29 02:47:04;;;;;;;279.73;262.50;;;10.50;66.40;;;;;;5013572;28;20190;-74
2023/04/29 02:49:32;;;;;;;448.27;423.57;;;10.50;66.20;;;;;;5013769;28;20549;-75
2023/04/29 02:51:58;;;;;;;205.63;191.30;;;10.50;66.70;;;;;;5012329;28;20180;-75
2023/04/29 02:54:24;;;;;;;203.83;189.60;;;10.50;65.10;;;;;;5013624;28;20444;-75
2023/04/29 02:56:50;;;;;;;185.13;172.13;;;10.50;65.60;;;;;;5013425;28;20194;-75
2023/04/29 02:59:15;;;;;;;167.93;155.53;;;10.50;65.80;;;;;;5013762;28;20423;-75
2023/04/29 03:01:42;;;;;;;164.97;152.13;;;10.40;65.30;;;;;;5011933;28;20183;-76
2023/04/29 03:04:07;;;;;;;285.77;267.97;;;10.40;65.80;;;;;;5013299;28;20544;-76
2023/04/29 03:06:33;;;;;;;186.40;173.47;;;10.40;66.40;;;;;;5013255;28;20497;-75
2023/04/29 03:08:58;;;;;;;446.73;422.23;;;10.40;65.50;;;;;;5013735;28;20179;-75
2023/04/29 03:11:24;;;;;;;170.93;158.33;;;10.40;66.40;;;;;;5013309;28;20258;-76
2023/04/29 03:13:50;;;;;;;295.77;278.30;;;10.40;65.70;;;;;;5013025;28;20245;-76
2023/04/29 03:16:15;;;;;;;173.17;160.30;;;10.40;65.40;;;;;;5013504;28;20171;-75
2023/04/29 03:18:42;;;;;;;178.07;164.90;;;10.30;64.60;;;;;;5013114;28;20226;-75
2023/04/29 03:21:07;;;;;;;185.07;172.00;;;10.30;65.10;;;;;;5012668;28;20179;-76
2023/04/29 03:23:33;;;;;;;194.47;180.97;;;10.30;64.60;;;;;;5011538;28;20443;-75
2023/04/29 03:26:00;;;;;;;197.07;182.77;;;10.30;65.20;;;;;;5011440;28;20221;-75
2023/04/29 03:28:26;;;;;;;202.07;188.23;;;10.30;65.00;;;;;;5011875;28;20676;-75
2023/04/29 03:30:51;;;;;;;181.17;168.27;;;10.30;65.00;;;;;;5012917;28;20411;-75
2023/04/29 03:33:17;;;;;;;488.97;461.77;;;10.20;65.40;;;;;;5012592;28;20460;-74
2023/04/29 03:35:44;;;;;;;235.47;220.30;;;10.30;65.90;;;;;;5013195;28;20171;-75
2023/04/29 03:38:10;;;;;;;296.03;278.00;;;10.30;65.10;;;;;;5013033;28;20174;-75
2023/04/29 03:40:36;;;;;;;205.80;192.07;;;10.20;65.00;;;;;;5013278;28;20428;-73
2023/04/29 03:43:02;;;;;;;179.33;166.33;;;10.20;64.80;;;;;;5012120;28;20210;-73
2023/04/29 03:45:28;;;;;;;230.13;215.80;;;10.20;65.00;;;;;;5011225;28;20631;-74
2023/04/29 03:47:53;;;;;;;310.03;291.33;;;10.20;65.50;;;;;;5012773;28;20501;-73
2023/04/29 03:50:19;;;;;;;174.00;161.00;;;10.10;66.00;;;;;;5012980;28;20403;-74
2023/04/29 03:52:45;;;;;;;242.73;226.43;;;10.10;65.60;;;;;;5012234;28;20207;-74
2023/04/29 03:55:11;;;;;;;299.33;280.03;;;10.10;65.40;;;;;;5012577;28;20192;-73
2023/04/29 03:57:37;;;;;;;193.43;179.50;;;10.10;65.60;;;;;;5012679;28;20418;-74
2023/04/29 04:00:04;;;;;;;212.07;198.03;;;10.10;65.60;;;;;;5011482;28;20516;-74
2023/04/29 04:02:30;;;;;;;178.97;166.30;;;10.10;65.20;;;;;;5012149;28;20415;-74
2023/04/29 04:04:57;;;;;;;192.80;179.10;;;10.10;65.50;;;;;;5012439;28;20529;-74
2023/04/29 04:07:23;;;;;;;186.13;172.63;;;10.10;65.40;;;;;;5012687;28;20168;-74
2023/04/29 04:09:48;;;;;;;240.73;225.67;;;10.00;64.80;;;;;;5012554;28;20461;-75
2023/04/29 04:12:14;;;;;;;178.17;165.00;;;10.10;65.50;;;;;;5012464;28;20191;-74
2023/04/29 04:14:39;;;;;;;246.73;231.00;;;10.00;64.60;;;;;;5012179;28;20211;-74
2023/04/29 04:17:05;;;;;;;429.20;405.17;;;10.00;65.00;;;;;;5011127;28;20192;-74
2023/04/29 04:19:31;;;;;;;397.93;374.47;;;10.00;65.30;;;;;;5012482;28;20190;-75
2023/04/29 04:21:57;;;;;;;195.87;182.00;;;10.00;64.70;;;;;;5011221;28;20720;-74
2023/04/29 04:24:22;;;;;;;151.40;139.10;;;9.90;66.10;;;;;;5012049;28;20553;-75
2023/04/29 04:26:48;;;;;;;244.97;229.57;;;9.90;66.40;;;;;;5011400;28;20202;-74
2023/04/29 04:29:13;;;;;;;601.10;567.20;;;9.90;65.70;;;;;;5012413;28;20577;-73
2023/04/29 04:31:39;;;;;;;196.10;182.50;;;;;;;;;;5014397;28;20175;-74
2023/04/29 04:34:05;;;;;;;197.77;184.17;;;;;;;;;;5015738;28;20203;-74
2023/04/29 04:36:31;;;;;;;194.13;180.57;;;;;;;;;;5015985;28;20965;-74
2023/04/29 04:38:57;;;;;;;201.37;187.73;;;;;;;;;;5015069;28;20415;-74
2023/04/29 04:41:23;;;;;;;172.87;160.23;;;;;;;;;;5016166;28;20502;-73
2023/04/29 04:43:50;;;;;;;178.70;165.50;;;;;;;;;;5047673;22;20517;-67
2023/04/29 04:46:16;;;;;;;225.20;210.67;;;;;;;;;;5035712;28;20413;-67
2023/04/29 04:48:42;;;;;;;162.40;150.00;;;;;;;;;;5035617;28;20418;-68
2023/04/29 04:51:09;;;;;;;164.10;151.10;;;;;;;;;;5036056;28;20420;-68
2023/04/29 04:53:35;;;;;;;171.20;158.00;;;;;;;;;;5035874;28;20433;-68
2023/04/29 04:56:02;;;;;;;155.13;142.60;;;;;;;;;;5035750;28;20643;-68
2023/04/29 04:58:28;;;;;;;181.50;168.40;;;;;;;;;;5035650;28;20402;-68
2023/04/29 05:00:53;;;;;;;197.93;184.33;;;;;;;;;;5035695;28;20414;-68
2023/04/29 05:03:19;;;;;;;173.10;160.33;;;;;;;;;;5034961;28;20795;-68
2023/04/29 05:05:45;;;;;;;206.17;192.37;;;;;;;;;;5035122;28;21114;-68
2023/04/29 05:08:11;;;;;;;444.23;419.37;;;;;;;;;;5035296;28;20410;-68
2023/04/29 05:10:37;;;;;;;208.07;193.97;;;;;;;;;;5035164;28;20438;-68
2023/04/29 05:13:03;;;;;;;292.20;275.40;;;;;;;;;;5016796;28;20791;-68
2023/04/29 05:15:29;;;;;;;202.93;188.93;;;;;;;;;;5034994;28;20417;-68
2023/04/29 05:17:55;;;;;;;227.50;212.70;;;;;;;;;;5035062;28;20894;-68
2023/04/29 05:20:21;;;;;;;261.97;245.70;;;;;;;;;;5034954;28;20437;-68
2023/04/29 05:22:47;;;;;;;241.90;226.70;;;;;;;;;;5032851;28;20420;-69
2023/04/29 05:25:13;;;;;;;248.90;232.93;;;;;;;;;;5034816;28;20465;-69
2023/04/29 05:27:39;;;;;;;311.57;293.73;;;;;;;;;;5017298;28;20497;-69
2023/04/29 05:30:05;;;;;;;302.23;284.57;;;;;;;;;;5034957;28;20468;-69
2023/04/29 05:32:31;;;;;;;288.33;271.17;;;;;;;;;;5034486;28;20407;-68
2023/04/29 05:34:57;;;;;;;283.63;266.97;;;;;;;;;;5034489;28;20483;-68
2023/04/29 05:37:25;;;;;;;332.27;312.43;;;;;;;;;;5034606;28;20485;-68
2023/04/29 05:39:51;;;;;;;265.77;249.43;;;;;;;;;;5034680;28;20426;-68
2023/04/29 05:42:17;;;;;;;379.93;360.13;;;;;;;;;;5033432;28;20496;-68
2023/04/29 05:44:43;;;;;;;391.57;371.53;;;;;;;;;;5033918;28;20484;-68
2023/04/29 05:47:09;;;;;;;396.93;375.67;;;;;;;;;;5033202;28;20448;-71
2023/04/29 05:49:35;;;;;;;425.30;402.30;;;;;;;;;;5034176;28;20424;-68
2023/04/29 05:52:05;;;;;;;559.97;529.83;;;;;;;;;;5034189;28;20464;-69
2023/04/29 05:54:31;;;;;;;477.73;451.77;;;;;;;;;;5034218;28;20943;-69
2023/04/29 05:56:57;;;;;;;505.90;477.57;;;;;;;;;;5034520;28;20441;-69
2023/04/29 05:59:22;;;;;;;592.17;557.00;;;9.90;67.20;;;;;;5034289;28;20496;-69
2023/04/29 06:01:48;;;;;;;522.30;491.40;;;20.50;55.20;;;;;;5034039;28;20453;-69
2023/04/29 06:04:13;;;;;;;564.63;528.43;;;22.70;22.80;;;;;;5034246;28;20210;-69
2023/04/29 06:06:39;;;;;;;542.53;505.97;;;24.50;10.70;;;;;;5034112;28;20188;-70
2023/04/29 06:09:05;;;;;;;588.37;549.37;;;26.50;5.50;;;;;;5034017;28;20273;-69
2023/04/29 06:11:30;;;;;;;577.00;538.20;;;27.90;1.20;;;;;;5034030;28;20414;-69
2023/04/29 06:13:56;;;;;;;575.60;532.83;;;27.60;1.00;;;;;;5033514;28;20207;-68
2023/04/29 06:16:22;;;;;;;533.43;497.20;;;26.70;1.10;;;;;;5016454;28;20713;-69
2023/04/29 06:18:47;;;;;;;509.40;477.30;;;26.30;1.70;;;;;;5034151;28;20194;-69
2023/04/29 06:21:13;;;;;;;559.37;521.80;;;26.40;1.00;;;;;;5033718;28;20241;-69
2023/04/29 06:23:39;;;;;;;383.77;358.57;;;25.80;1.90;;;;;;5033607;28;20238;-69
2023/04/29 06:26:05;;;;;;;369.20;345.30;;;24.60;3.00;;;;;;5033839;28;20975;-69
2023/04/29 06:28:30;;;;;;;490.53;458.07;;;23.30;5.20;;;;;;5034067;28;20175;-69
2023/04/29 06:30:56;;;;;;;428.23;403.77;;;23.10;5.90;;;;;;5033720;28;20207;-70
2023/04/29 06:33:21;;;;;;;484.63;457.43;;;24.50;4.60;;;;;;5033200;28;20282;-72
2023/04/29 06:35:47;;;;;;;473.50;445.60;;;24.70;2.00;;;;;;5033408;28;20643;-70
2023/04/29 06:38:12;;;;;;;491.77;458.33;;;23.70;2.50;;;;;;5033683;28;20194;-70
2023/04/29 06:40:38;;;;;;;471.47;441.87;;;22.10;4.00;;;;;;5033546;28;20184;-70
2023/04/29 06:43:03;;;;;;;587.60;550.77;;;21.00;6.20;;;;;;5032814;28;20707;-69
2023/04/29 06:45:30;;;;;;;409.27;381.93;;;20.10;7.60;;;;;;5033346;28;20262;-69
2023/04/29 06:47:55;;;;;;;533.43;500.67;;;19.30;7.80;;;;;;5033244;28;20171;-70
2023/04/29 06:50:21;;;;;;;362.27;337.47;;;18.20;10.30;;;;;;5033978;28;20491;-69
2023/04/29 06:52:48;;;;;;;514.93;483.43;;;18.50;12.60;;;;;;5027419;28;20191;-69
2023/04/29 06:55:13;;;;;;;500.03;465.87;;;20.90;8.20;;;;;;5028895;28;20171;-69
2023/04/29 06:57:39;;;;;;;686.50;641.17;;;23.50;3.60;;;;;;5028763;28;20580;-69
2023/04/29 07:00:05;;;;;;;444.20;413.07;;;23.30;1.50;;;;;;5029540;28;20195;-69
2023/04/29 07:02:31;;;;;;;576.57;537.97;;;22.80;3.00;;;;;;5028475;28;20194;-68
2023/04/29 07:04:56;;;;;;;612.83;571.67;;;22.50;3.80;;;;;;5007600;28;21127;-68
2023/04/29 07:07:22;;;;;;;593.00;552.20;;;22.30;2.80;;;;;;5012047;28;20537;-69
2023/04/29 07:09:50;;;;;;;673.67;628.47;;;22.70;3.40;;;;;;5013557;28;20175;-68
2023/04/29 07:12:16;;;;;;;622.10;581.00;;;22.20;3.20;;;;;;5016151;28;20195;-69
2023/04/29 07:14:41;;;;;;;650.77;603.53;;;22.20;3.90;;;;;;5032510;28;20446;-69
2023/04/29 07:17:07;;;;;;;507.03;470.83;;;22.10;3.20;;;;;;5032662;28;20653;-69
2023/04/29 07:19:33;;;;;;;714.67;666.97;;;22.30;3.00;;;;;;5024446;28;20184;-69
2023/04/29 07:21:58;;;;;;;459.07;431.23;;;21.60;3.40;;;;;;5013111;28;20202;-69
2023/04/29 07:24:25;;;;;;;541.20;503.63;;;20.90;4.00;;;;;;5032353;28;20214;-69
2023/04/29 07:26:50;;;;;;;626.50;582.30;;;20.00;4.50;;;;;;5015447;28;20180;-68
2023/04/29 07:29:16;;;;;;;524.57;488.47;;;18.90;6.20;;;;;;5012942;28;20418;-69
2023/04/29 07:31:41;;;;;;;588.93;550.60;;;18.40;8.20;;;;;;5012732;28;20176;-68
2023/04/29 07:34:07;;;;;;;505.20;468.63;;;19.20;9.10;;;;;;5030300;28;20573;-69
2023/04/29 07:36:33;;;;;;;443.80;415.00;;;19.40;6.40;;;;;;5032635;28;20836;-69
2023/04/29 07:38:58;;;;;;;551.47;514.33;;;19.80;6.70;;;;;;5015572;28;20211;-69
2023/04/29 07:41:24;;;;;;;590.43;551.00;;;20.10;5.30;;;;;;5012488;28;20180;-69
2023/04/29 07:43:50;;;;;;;643.60;599.73;;;19.00;6.20;;;;;;5027539;28;20567;-68
2023/04/29 07:46:17;;;;;;;662.40;619.13;;;18.00;8.40;;;;;;5032379;28;20184;-69
2023/04/29 07:48:42;;;;;;;563.67;525.37;;;18.50;9.20;;;;;;5032428;28;20178;-71
2023/04/29 07:51:13;;;;;;;577.30;537.87;;;18.10;9.50;;;;;;5032431;28;20418;-69
2023/04/29 07:53:39;;;;;;;440.53;411.73;;;18.10;8.20;;;;;;5031344;28;20279;-69
2023/04/29 07:56:06;;;;;;;510.17;478.37;;;18.70;8.80;;;;;;5032146;28;20414;-69
2023/04/29 07:58:32;;;;;;;473.93;444.83;;;18.80;9.10;;;;;;5031699;28;20491;-69
2023/04/29 08:01:05;;;;;;;617.83;577.00;;;19.70;7.40;;;;;;5031808;28;20892;-69
2023/04/29 08:03:30;;;;;;;658.63;609.90;;;21.40;6.20;;;;;;5031857;28;20195;-69
2023/04/29 08:06:03;;;;;;;708.20;659.07;;;24.30;1.30;;;;;;5031256;28;20470;-69
2023/04/29 08:08:30;;;;;;;692.77;639.33;;;27.60;1.00;;;;;;5030083;28;20207;-69
2023/04/29 08:10:55;;;;;;;874.27;803.47;;;27.20;1.00;;;;;;5029696;28;20430;-68
2023/04/29 08:13:21;;;;;;;678.13;630.13;;;24.20;1.00;;;;;;5029550;28;20533;-69
2023/04/29 08:15:46;;;;;;;631.93;587.17;;;23.80;1.00;;;;;;5029807;28;20189;-69
2023/04/29 08:18:12;;;;;;;694.07;640.13;;;24.40;1.00;;;;;;5029903;28;20254;-69
2023/04/29 08:20:37;;;;;;;716.07;660.47;;;27.00;1.00;;;;;;5029880;28;20246;-69
2023/04/29 08:23:03;;;;;;;638.57;590.07;;;29.00;1.00;;;;;;5030857;28;20586;-69
2023/04/29 08:25:29;;;;;;;744.73;684.03;;;32.20;1.00;;;;;;5031795;28;20209;-69
2023/04/29 08:27:54;;;;;;;868.73;794.40;;;34.10;1.00;;;;;;5031719;28;20187;-68
2023/04/29 08:30:20;;;;;;;666.87;614.10;;;32.90;1.00;;;;;;5031750;28;20229;-68
2023/04/29 08:32:46;;;;;;;705.37;648.43;;;30.20;1.00;;;;;;5013668;28;20190;-69
2023/04/29 08:35:12;;;;;;;901.03;822.17;;;29.00;1.00;;;;;;5031802;28;20182;-69
2023/04/29 08:37:37;;;;;;;767.87;705.03;;;29.30;1.00;;;;;;5031262;28;20190;-69
2023/04/29 08:40:04;;;;;;;738.97;680.03;;;27.90;1.00;;;;;;5013948;28;20660;-68
2023/04/29 08:42:36;;;;;;;404.23;371.37;;;27.70;1.00;;;;;;5031284;28;20331;-68
2023/04/29 08:45:03;;;;;;;696.83;641.67;;;25.30;1.00;;;;;;5031357;28;20461;-68
2023/04/29 08:47:30;;;;;;;727.50;669.80;;;26.00;1.00;;;;;;5013592;28;20430;-68
2023/04/29 08:49:56;;;;;;;788.93;724.70;;;29.80;1.00;;;;;;5031584;28;20425;-68
2023/04/29 08:52:23;;;;;;;838.10;768.57;;;30.30;1.00;;;;;;5031310;28;20413;-68
2023/04/29 08:54:49;;;;;;;872.60;799.60;;;28.50;1.00;;;;;;5013733;28;20456;-68
2023/04/29 08:57:15;;;;;;;745.03;685.97;;;27.20;1.00;;;;;;5031244;28;20468;-68
2023/04/29 08:59:41;;;;;;;730.20;672.77;;;24.00;1.00;;;;;;5013769;28;20449;-68
2023/04/29 09:02:12;;;;;;;657.77;608.70;;;22.40;1.00;;;;;;5031246;28;20849;-68
2023/04/29 09:04:43;;;;;;;744.93;689.10;;;21.50;1.00;;;;;;5013568;28;20215;-68
2023/04/29 09:07:11;;;;;;;788.73;730.07;;;20.50;1.00;;;;;;5013502;28;21006;-68
2023/04/29 09:09:41;;;;;;;802.60;741.97;;;20.20;1.00;;;;;;5031199;28;20433;-68
2023/04/29 09:12:07;;;;;;;671.17;624.67;;;20.00;1.00;;;;;;5031434;28;20406;-68
2023/04/29 09:14:33;;;;;;;608.53;564.20;;;19.90;1.00;;;;;;5031628;28;20438;-67
2023/04/29 09:16:59;;;;;;;741.70;690.83;;;19.90;1.10;;;;;;5031939;28;20188;-67
2023/04/29 09:19:35;;;;;;;714.03;662.77;;;19.50;1.00;;;;;;5034900;28;20935;-68
2023/04/29 09:22:02;;;;;;;681.27;632.33;;;19.20;1.20;;;;;;5034962;28;20818;-68
2023/04/29 09:24:29;;;;;;;601.53;560.90;;;18.70;1.40;;;;;;5034824;28;20954;-68
2023/04/29 09:26:55;;;;;;;589.33;548.77;;;18.70;4.00;;;;;;5034781;28;20461;-68
2023/04/29 09:29:21;;;;;;;643.93;599.17;;;19.00;3.30;;;;;;5034704;28;20426;-67
2023/04/29 09:31:48;;;;;;;573.53;533.47;;;19.30;2.00;;;;;;5034461;28;20426;-67
2023/04/29 09:34:14;;;;;;;557.60;514.70;;;19.10;1.60;;;;;;5035153;28;20563;-69
2023/04/29 09:36:46;;;;;;;705.10;649.67;;;19.10;1.00;;;;;;5034689;28;20426;-68
2023/04/29 09:39:21;;;;;;;598.40;556.37;;;18.70;1.00;;;;;;5034778;28;20179;-68
2023/04/29 09:41:53;;;;;;;676.00;625.03;;;18.50;2.50;;;;;;5016607;28;20428;-68
2023/04/29 09:44:21;;;;;;;615.63;570.50;;;18.20;1.00;;;;;;5016620;28;20469;-68
2023/04/29 09:46:58;;;;;;;542.97;502.70;;;18.10;1.60;;;;;;5034312;28;20429;-68
2023/04/29 09:49:28;;;;;;;560.63;521.20;;;17.90;1.30;;;;;;5045953;28;20417;-68
2023/04/29 09:51:59;;;;;;;452.13;419.93;;;18.00;2.20;;;;;;5054120;28;20421;-68
2023/04/29 09:54:27;;;;;;;606.07;563.63;;;18.10;2.40;;;;;;5034868;28;20449;-68
2023/04/29 09:56:54;;;;;;;589.50;547.17;;;18.30;3.10;;;;;;5034703;28;20425;-68
2023/04/29 09:59:20;;;;;;;610.20;565.30;;;19.00;1.80;;;;;;5034403;28;20414;-68
2023/04/29 10:01:51;;;;;;;652.70;607.57;;;19.00;1.80;;;;;;5034003;28;21217;-68
2023/04/29 10:04:18;;;;;;;694.80;641.93;;;19.40;2.00;;;;;;5034329;28;20472;-68
2023/04/29 10:06:47;;;;;;;309.80;287.67;;;19.80;1.00;;;;;;5039598;28;20795;-68
2023/04/29 10:09:17;;;;;;;713.90;662.30;;;19.80;1.00;;;;;;5034035;28;20900;-68
2023/04/29 10:11:44;;;;;;;659.17;610.60;;;19.60;1.00;;;;;;5031337;28;20436;-68
2023/04/29 10:14:21;;;;;;;663.40;613.80;;;19.70;1.00;;;;;;5032497;28;20441;-67
2023/04/29 10:17:10;;;;;;;659.67;610.90;;;19.80;1.00;;;;;;5033692;28;20520;-68
2023/04/29 10:19:51;;;;;;;486.60;452.53;;;19.50;1.00;;;;;;5030048;28;20792;-68
2023/04/29 10:22:46;;;;;;;708.77;656.43;;;19.80;1.00;;;;;;5033406;28;20432;-67
2023/04/29 10:25:14;;;;;;;542.27;500.83;;;20.10;1.00;;;;;;5015902;28;20490;-68
2023/04/29 10:27:43;;;;;;;579.87;535.93;;;19.90;1.00;;;;;;5033261;28;20556;-68
2023/04/29 10:30:13;;;;;;;575.50;531.57;;;20.00;1.00;;;;;;5033112;28;20451;-70
2023/04/29 10:32:43;;;;;;;677.80;626.03;;;19.80;1.00;;;;;;5033538;28;20501;-68
2023/04/29 10:35:11;;;;;;;571.47;526.60;;;19.80;1.00;;;;;;5015461;28;20449;-68
2023/04/29 10:37:37;;;;;;;369.93;343.47;;;19.80;1.00;;;;;;5033324;28;20434;-68
2023/04/29 10:40:17;;;;;;;720.70;664.27;;;19.90;1.00;;;;;;5033510;28;20418;-69
2023/04/29 10:42:45;;;;;;;744.70;687.17;;;20.20;1.00;;;;;;5033278;28;20179;-69
2023/04/29 10:45:31;;;;;;;668.17;616.43;;;20.60;1.00;;;;;;5033978;28;20512;-69
2023/04/29 10:48:07;;;;;;;540.03;496.87;;;20.50;1.00;;;;;;5013672;28;20415;-69
2023/04/29 10:50:45;;;;;;;844.57;777.80;;;20.50;1.00;;;;;;5025781;28;20436;-68
2023/04/29 10:53:11;;;;;;;756.03;699.23;;;20.80;1.00;;;;;;5032879;28;20831;-68
2023/04/29 10:55:37;;;;;;;619.43;572.87;;;20.60;1.00;;;;;;5033266;28;20786;-71
2023/04/29 10:58:04;;;;;;;776.23;716.80;;;20.40;1.00;;;;;;5033267;28;20425;-68
2023/04/29 11:00:32;;;;;;;684.07;633.90;;;20.10;1.00;;;;;;5033010;28;20505;-68
2023/04/29 11:02:59;;;;;;;693.13;640.60;;;19.70;1.00;;;;;;5032901;28;20831;-68
2023/04/29 11:05:45;;;;;;;700.70;648.63;;;19.70;1.00;;;;;;5033042;28;20489;-68
2023/04/29 11:08:12;;;;;;;738.70;674.73;;;19.90;1.00;;;;;;5033186;28;20409;-70
2023/04/29 11:10:43;;;;;;;790.50;731.83;;;20.00;1.00;;;;;;5032836;28;20828;-69
2023/04/29 11:13:26;;;;;;;684.10;634.47;;;19.70;1.00;;;;;;5032656;28;20430;-69
2023/04/29 11:15:53;;;;;;;630.40;585.60;;;19.50;1.00;;;;;;5033041;28;20420;-69
2023/04/29 11:18:18;;;;;;;614.53;569.47;;;19.10;2.30;;;;;;5032818;28;20521;-69
2023/04/29 11:21:03;;;;;;;618.23;575.53;;;18.80;2.10;;;;;;5032732;28;20861;-69
2023/04/29 11:23:28;;;;;;;659.10;609.67;;;18.50;3.20;;;;;;5032818;28;20254;-69
2023/04/29 11:25:54;;;;;;;746.37;686.43;;;18.50;3.60;;;;;;5032610;28;20501;-69
2023/04/29 11:28:21;;;;;;;599.90;555.20;;;18.60;3.50;;;;;;5032732;28;20221;-68
2023/04/29 11:30:48;;;;;;;499.50;466.43;;;18.80;2.80;;;;;;5032692;28;20884;-70
2023/04/29 11:33:14;;;;;;;597.70;554.37;;;19.00;2.20;;;;;;5032362;28;20438;-69
2023/04/29 11:35:41;;;;;;;596.63;553.10;;;18.90;2.20;;;;;;5032318;28;20421;-69
2023/04/29 11:38:06;;;;;;;648.07;601.90;;;18.90;2.20;;;;;;5014895;28;20233;-69
2023/04/29 11:40:32;;;;;;;688.37;638.60;;;18.90;2.60;;;;;;5031574;28;20422;-69
2023/04/29 11:42:58;;;;;;;668.77;623.97;;;18.50;3.10;;;;;;5032138;28;20637;-69
2023/04/29 11:45:23;;;;;;;548.83;509.13;;;18.60;3.40;;;;;;5032373;28;20230;-69
2023/04/29 11:47:49;;;;;;;599.43;557.47;;;18.80;2.10;;;;;;5032371;28;20633;-69
2023/04/29 11:50:18;;;;;;;675.13;626.17;;;19.20;2.40;;;;;;5032135;28;20251;-70
2023/04/29 11:52:46;;;;;;;701.73;647.13;;;19.40;2.60;;;;;;5014389;28;20229;-69
2023/04/29 11:55:13;;;;;;;775.30;716.73;;;19.40;1.40;;;;;;5014788;28;20422;-69
2023/04/29 11:57:39;;;;;;;580.70;538.13;;;19.40;1.00;;;;;;5014474;28;20414;-69
2023/04/29 12:00:11;;;;;;;638.87;591.03;;;19.50;1.00;;;;;;5032167;28;20414;-69
2023/04/29 12:02:37;;;;;;;561.23;521.77;;;19.70;1.00;;;;;;5032002;28;20421;-69
2023/04/29 12:05:07;;;;;;;447.63;415.47;;;19.90;1.00;;;;;;5031865;28;20469;-69
2023/04/29 12:07:33;;;;;;;645.13;596.73;;;20.00;1.00;;;;;;5032110;28;20220;-69
2023/04/29 12:09:58;;;;;;;493.53;458.23;;;20.40;1.00;;;;;;5014065;28;20488;-69
2023/04/29 12:12:26;;;;;;;753.50;695.37;;;20.80;1.00;;;;;;5031898;28;20456;-69
2023/04/29 12:14:52;;;;;;;822.17;758.70;;;21.10;1.00;;;;;;5031995;28;20564;-69
2023/04/29 12:17:18;;;;;;;574.93;528.80;;;21.20;1.00;;;;;;5014276;28;20882;-69
2023/04/29 12:19:44;;;;;;;666.00;614.60;;;21.70;1.00;;;;;;5031860;28;20784;-69
2023/04/29 12:22:10;;;;;;;661.37;614.77;;;21.40;1.00;;;;;;5031669;28;20505;-69
2023/04/29 12:24:37;;;;;;;659.00;609.83;;;20.90;1.00;;;;;;5031753;28;21050;-69